Latest Weather Observations for Coonabarabran Airport

IDN60801

Issued at 5:02 pm EDT Wednesday 22 February 2017 (issued every 30 minutes, with the page automatically refreshed every 10 minutes)

About weather observations | Map of weather stations | Latest weather observations for NSW | Other Formats
Station Details ID: 064017 Name: COONABARABRAN AIRPORT AWS Lat: -31.33 Lon: 149.27 Height: 645.0 m
Data from the previous 72 hours. | See also: Recent months at Coonabarabran Airport
Date/Time
EDT
Temp
°C
App
Temp
°C
Dew
Point
°C
Rel
Hum
%
Delta-T
°C
Wind Press
QNH
hPa
Press
MSL
hPa
Rain since
9am
mm
Dir  Spd
km/h
Gust
km/h
Spd
kts
Gust
kts
22/04:30pm 30.5 28.8 9.9 28 12.0 NW 9 19 5 10 1018.0 1014.2 0.0
22/04:00pm 30.6 29.2 9.5 27 12.2 NE 7 15 4 8 1018.4 1014.6 0.0
22/03:30pm 30.5 29.1 11.0 30 11.5 WNW 9 15 5 8 1018.7 1015.0 0.0
22/03:00pm 29.4 27.4 10.0 30 11.2 NNE 11 20 6 11 1019.2 1015.4 0.0
22/02:30pm 29.6 27.5 11.2 32 10.9 N 13 24 7 13 1019.7 1015.9 0.0
22/02:00pm 28.6 26.8 10.8 33 10.4 NE 11 19 6 10 1020.1 1016.4 0.0
22/01:30pm 27.9 25.8 11.0 35 9.9 NE 13 22 7 12 1020.5 1016.8 0.0
22/01:00pm 28.5 26.0 12.4 37 9.6 NNW 17 30 9 16 1021.0 1017.2 0.0
22/12:30pm 28.0 26.6 13.5 41 8.8 NNW 13 22 7 12 1021.3 1017.5 0.0
22/12:00pm 26.9 24.7 12.2 40 8.7 N 15 22 8 12 1021.6 1017.9 0.0
22/11:30am 26.0 23.3 12.8 44 7.9 NW 19 28 10 15 1021.9 1018.2 0.0
22/11:00am 25.1 23.3 12.0 44 7.7 N 13 20 7 11 1022.2 1018.5 0.0
22/10:30am 23.8 21.1 11.8 47 7.0 N 17 26 9 14 1022.5 1018.7 0.0
22/10:00am 23.5 21.4 11.2 46 7.1 N 13 19 7 10 1022.6 1018.8 0.0
22/09:30am 22.1 20.4 12.4 54 5.7 NNE 13 19 7 10 1022.5 1018.7 0.0
22/09:00am 21.3 19.2 13.7 62 4.5 NE 17 20 9 11 1022.1 1018.4 0.0
22/08:30am 20.0 18.3 13.7 67 3.7 NE 15 20 8 11 1021.8 1018.1 0.0
22/08:00am 19.1 18.1 13.5 70 3.3 E 11 13 6 7 1021.6 1017.9 0.0
22/07:30am 17.5 17.1 13.0 75 2.6 NNE 7 13 4 7 1021.2 1017.4 0.0
22/07:00am 16.4 14.5 13.1 81 1.9 NE 15 15 8 8 1020.5 1016.8 0.0
22/06:30am 15.7 13.6 12.3 80 1.9 NE 15 17 8 9 1020.3 1016.6 0.0
22/06:00am 16.5 14.1 12.7 78 2.2 NE 17 19 9 10 1020.1 1016.4 0.0
22/05:30am 16.9 13.9 12.6 76 2.5 NE 20 24 11 13 1019.6 1015.8 0.0
22/05:00am 16.5 13.9 11.9 74 2.6 ENE 17 19 9 10 1019.4 1015.6 0.0
22/04:30am 16.2 13.7 10.9 71 2.9 ENE 15 17 8 9 1019.3 1015.5 0.0
22/04:00am 17.2 14.7 11.2 68 3.3 ESE 15 19 8 10 1019.2 1015.4 0.0
22/03:30am 17.4 14.4 10.5 64 3.8 E 17 20 9 11 1019.2 1015.4 0.0
22/03:00am 17.9 15.2 9.0 56 4.8 ESE 13 15 7 8 1019.2 1015.4 0.0
22/02:30am 17.7 14.7 5.9 46 6.0 E 11 13 6 7 1019.3 1015.5 0.0
22/02:00am 19.2 16.2 7.6 47 6.1 ENE 13 15 7 8 1019.4 1015.6 0.0
22/01:30am 19.3 14.8 -2.9 22 9.5 E 11 13 6 7 1019.4 1015.6 0.0
22/01:00am 19.3 14.2 -2.3 23 9.4 E 15 20 8 11 1019.6 1015.8 0.0
22/12:49am 17.8 12.2 -2.5 25 8.7 E 17 24 9 13 1019.5 1015.7 0.0
22/12:30am 22.8 18.3 -7.0 13 12.2 WSW 9 9 5 5 1019.3 1015.5 0.0
22/12:00am 22.8 17.9 -7.0 13 12.2 WSW 11 13 6 7 1019.4 1015.6 0.0
 
Date/Time
EDT
Temp
°C
App
Temp
°C
Dew
Point
°C
Rel
Hum
%
Delta-T
°C
Wind Press
QNH
hPa
Press
MSL
hPa
Rain since
9am
mm
Dir  Spd
km/h
Gust
km/h
Spd
kts
Gust
kts
21/11:30pm 22.4 17.7 -5.5 15 11.7 WSW 11 13 6 7 1019.6 1015.8 0.0
21/11:00pm 22.6 17.8 -6.2 14 11.9 SW 11 15 6 8 1019.6 1015.8 0.0
21/10:30pm 23.2 18.4 -5.7 14 12.2 WSW 11 15 6 8 1019.7 1015.9 0.0
21/10:00pm 23.3 18.2 -4.8 15 12.0 WSW 13 15 7 8 1019.7 1015.9 0.0
21/09:30pm 22.2 18.7 -3.2 18 11.1 WSW 6 13 3 7 1019.5 1015.7 0.0
21/09:00pm 24.5 21.5 -2.1 17 12.1 SSW 4 13 2 7 1019.2 1015.4 0.0
21/08:30pm 25.1 21.3 -0.9 18 12.2 N 9 13 5 7 1018.8 1015.1 0.0
21/08:00pm 25.4 21.5 -1.4 17 12.4 SSE 9 9 5 5 1018.5 1014.7 0.0
21/07:30pm 26.3 22.4 -1.5 16 13.0 ESE 9 11 5 6 1018.2 1014.4 0.0
21/07:00pm 27.9 24.4 -1.1 15 13.8 ENE 7 11 4 6 1018.0 1014.2 0.0
21/06:30pm 28.7 24.8 -1.4 14 14.3 ENE 9 17 5 9 1017.7 1013.9 0.0
21/06:00pm 29.0 24.6 -2.2 13 14.7 S 11 15 6 8 1017.6 1013.8 0.0
21/05:30pm 29.4 25.4 -1.9 13 14.9 SSE 9 13 5 7 1017.6 1013.8 0.0
21/05:00pm 29.9 26.7 -0.5 14 14.8 W 6 13 3 7 1017.6 1013.8 0.0
21/04:30pm 29.0 25.7 -1.2 14 14.5 NNW 6 15 3 8 1017.6 1013.8 0.0
21/04:00pm 28.8 24.8 -2.3 13 14.6 SSE 9 19 5 10 1017.7 1013.9 0.0
21/03:30pm 28.3 23.6 -1.7 14 14.2 WSW 13 22 7 12 1017.8 1014.0 0.0
21/03:00pm 29.1 23.5 -0.1 15 14.2 SSW 19 30 10 16 1017.9 1014.1 0.0
21/02:30pm 28.9 24.0 -0.3 15 14.2 S 15 24 8 13 1018.3 1014.5 0.0
21/02:00pm 27.4 22.9 -0.6 16 13.4 SSE 13 24 7 13 1018.5 1014.7 0.0
21/01:30pm 27.2 23.4 -0.8 16 13.3 S 9 19 5 10 1018.8 1015.1 0.0
21/01:00pm 27.0 22.9 -0.1 17 13.0 SSW 11 19 6 10 1019.4 1015.6 0.0
21/12:30pm 26.8 23.6 -0.3 17 13.0 SE 6 13 3 7 1019.7 1015.9 0.0
21/12:00pm 25.2 21.0 -0.8 18 12.2 SSW 11 19 6 10 1020.2 1016.5 0.0
21/11:30am 25.6 20.3 -0.5 18 12.4 WSW 17 26 9 14 1020.8 1017.0 0.0
21/11:00am 24.1 20.0 -0.2 20 11.4 W 11 19 6 10 1021.1 1017.3 0.0
21/10:30am 23.5 19.8 -0.1 21 11.1 SSW 9 20 5 11 1021.0 1017.2 0.0
21/10:00am 22.3 18.8 -1.1 21 10.6 SSW 7 15 4 8 1020.9 1017.1 0.0
21/09:30am 21.5 18.1 -1.7 21 10.4 S 6 13 3 7 1020.5 1016.8 0.0
21/09:00am 20.9 17.6 -1.6 22 10.0 SSW 6 13 3 7 1020.3 1016.6 0.0
21/08:30am 19.2 17.0 -1.3 25 9.1 CALM 0 6 0 3 1019.9 1016.1 0.0
21/08:00am 17.2 13.8 -1.9 27 8.2 WSW 6 11 3 6 1019.6 1015.8 0.0
21/07:30am 15.0 11.5 -1.5 32 7.0 SW 7 19 4 10 1019.0 1015.3 0.0
21/07:00am 13.9 9.9 -2.5 32 6.7 SW 9 11 5 6 1018.5 1014.7 0.0
21/06:30am 13.4 9.4 -2.5 33 6.5 SSW 9 13 5 7 1018.2 1014.4 0.0
21/06:00am 13.8 9.4 -2.2 33 6.6 SSW 11 13 6 7 1018.0 1014.2 0.0
21/05:30am 13.9 9.2 -2.1 33 6.6 SSW 13 15 7 8 1017.7 1013.9 0.0
21/05:00am 13.8 9.4 -2.2 33 6.6 SSW 11 15 6 8 1017.3 1013.6 0.0
21/04:30am 13.6 9.2 -2.3 33 6.5 SW 11 15 6 8 1017.3 1013.6 0.0
21/04:00am 13.6 9.2 -2.3 33 6.5 SW 11 13 6 7 1017.3 1013.6 0.0
21/03:30am 13.2 8.8 -2.3 34 6.4 SSW 11 13 6 7 1017.2 1013.4 0.0
21/03:00am 13.6 8.5 -1.9 34 6.4 SSW 15 17 8 9 1017.1 1013.3 0.0
21/02:30am 14.0 8.9 -2.0 33 6.7 SSW 15 17 8 9 1017.5 1013.7 0.0
21/02:00am 14.5 9.8 -2.0 32 6.9 S 13 19 7 10 1017.9 1014.1 0.0
21/01:30am 15.1 10.3 -2.3 30 7.3 SSW 13 19 7 10 1018.1 1014.3 0.0
21/01:00am 15.8 10.7 -2.2 29 7.6 SSW 15 20 8 11 1018.0 1014.2 0.0
21/12:30am 16.0 11.2 -2.5 28 7.8 SSW 13 19 7 10 1018.2 1014.4 0.0
21/12:00am 16.2 11.5 -1.8 29 7.7 SSW 13 17 7 9 1018.2 1014.4 0.0
 
Date/Time
EDT
Temp
°C
App
Temp
°C
Dew
Point
°C
Rel
Hum
%
Delta-T
°C
Wind Press
QNH
hPa
Press
MSL
hPa
Rain since
9am
mm
Dir  Spd
km/h
Gust
km/h
Spd
kts
Gust
kts
20/11:30pm 16.3 11.7 -1.3 30 7.6 SSW 13 15 7 8 1018.1 1014.3 0.0
20/11:00pm 16.8 11.8 -0.9 30 7.7 SW 15 19 8 10 1017.9 1014.1 0.0
20/10:30pm 17.3 12.0 -0.4 30 7.9 SW 17 20 9 11 1017.8 1014.0 0.0
20/10:00pm 17.6 13.1 -0.2 30 7.9 SW 13 17 7 9 1017.7 1013.9 0.0
20/09:30pm 17.9 13.8 0.1 30 8.0 SW 11 15 6 8 1017.1 1013.3 0.0
20/09:00pm 18.3 13.8 0.0 29 8.2 SW 13 15 7 8 1016.9 1013.1 0.0
20/08:30pm 18.7 14.9 -0.7 27 8.7 SW 9 15 5 8 1016.3 1012.5 0.0
20/08:00pm 19.9 15.3 -0.7 25 9.3 SW 13 17 7 9 1015.7 1011.9 0.0
20/07:30pm 20.9 16.0 -0.4 24 9.7 SSW 15 20 8 11 1015.1 1011.3 0.0
20/07:00pm 22.0 16.4 -0.1 23 10.3 SSW 19 26 10 14 1014.7 1010.9 0.0
20/06:30pm 22.9 17.7 0.1 22 10.7 SSW 17 22 9 12 1014.4 1010.5 0.0
20/06:00pm 23.7 17.9 0.1 21 11.1 SW 20 30 11 16 1013.9 1010.1 0.0
20/05:30pm 23.9 18.4 0.3 21 11.2 SW 19 26 10 14 1013.8 1010.0 0.0
20/05:00pm 24.0 18.5 0.4 21 11.2 SW 19 26 10 14 1013.5 1009.7 0.0
20/04:30pm 24.2 18.5 0.5 21 11.3 SSW 20 35 11 19 1013.5 1009.7 0.0
20/04:00pm 23.7 17.6 0.7 22 11.0 SW 22 32 12 17 1013.6 1009.8 0.0
20/03:30pm 23.7 18.0 0.7 22 11.0 SSW 20 32 11 17 1013.5 1009.7 0.0
20/03:00pm 24.2 19.3 1.8 23 11.0 SW 17 28 9 15 1013.7 1009.9 0.0
20/02:30pm 23.4 18.3 0.5 22 10.9 SSW 17 33 9 18 1014.0 1010.2 0.0
20/02:00pm 22.7 18.6 2.2 26 10.0 WSW 13 26 7 14 1014.3 1010.4 0.0
20/01:30pm 22.1 16.5 1.2 25 9.9 SW 20 32 11 17 1014.6 1010.8 0.0
20/01:00pm 22.2 17.3 1.8 26 9.8 SSW 17 28 9 15 1014.6 1010.8 0.0
20/12:30pm 21.5 17.3 1.7 27 9.5 SW 13 24 7 13 1015.0 1011.2 0.0
20/12:00pm 20.9 16.4 2.2 29 9.0 WNW 15 26 8 14 1015.2 1011.4 0.0
20/11:30am 20.5 15.7 2.8 31 8.6 SW 17 26 9 14 1015.5 1011.7 0.0
20/11:00am 19.3 14.4 2.2 32 8.1 SSW 17 28 9 15 1015.6 1011.8 0.0
20/10:30am 18.4 12.5 1.9 33 7.7 SSW 22 32 12 17 1015.5 1011.7 0.0
20/10:00am 17.9 12.7 2.2 35 7.4 SSW 19 33 10 18 1015.4 1011.6 0.0
20/09:30am 17.3 11.8 2.1 36 7.1 SSW 20 28 11 15 1015.1 1011.3 0.0
20/09:00am 16.3 10.8 2.0 38 6.6 S 20 28 11 15 1014.7 1010.9 0.0
20/08:30am 14.9 8.6 1.8 41 6.0 SSW 24 35 13 19 1014.4 1010.5 0.0
20/08:00am 14.3 9.3 1.6 42 5.7 SSW 17 30 9 16 1014.2 1010.3 0.0
20/07:30am 13.3 9.0 1.3 44 5.3 SW 13 19 7 10 1014.0 1010.2 0.0
20/07:00am 12.6 7.5 1.0 45 5.1 SW 17 22 9 12 1013.7 1009.9 0.0
20/06:30am 12.8 7.2 0.9 44 5.2 SW 20 26 11 14 1013.5 1009.7 0.0
20/06:00am 12.8 7.3 0.9 44 5.2 SW 19 24 10 13 1013.4 1009.6 0.0
20/05:30am 13.2 7.5 0.6 42 5.5 SW 20 26 11 14 1013.4 1009.6 0.0
20/05:00am 13.5 7.3 -0.2 39 5.9 SW 22 30 12 16 1013.1 1009.3 0.0
20/04:30am 14.0 7.8 -0.4 37 6.2 SW 22 33 12 18 1012.8 1008.9 0.0
20/04:00am 14.1 7.8 -0.7 36 6.3 SW 22 32 12 17 1012.4 1008.6 0.0
20/03:30am 14.7 8.4 -1.0 34 6.7 SW 22 32 12 17 1012.3 1008.5 0.0
20/03:00am 14.7 8.1 -0.6 35 6.6 SW 24 33 13 18 1012.2 1008.4 0.0
20/02:30am 14.8 9.1 -0.5 35 6.6 WSW 19 26 10 14 1012.4 1008.6 0.0
20/02:00am 15.3 9.6 -0.9 33 7.0 WSW 19 26 10 14 1012.3 1008.5 0.0
20/01:30am 15.5 10.6 -0.7 33 7.0 WSW 15 20 8 11 1012.3 1008.5 0.0
20/01:00am 15.6 10.6 -1.0 32 7.2 WSW 15 20 8 11 1012.3 1008.5 0.0
20/12:30am 15.6 11.0 -1.0 32 7.2 WSW 13 17 7 9 1012.3 1008.5 0.0
20/12:00am 15.9 11.3 -1.2 31 7.4 WSW 13 17 7 9 1012.4 1008.6 0.0
 
Date/Time
EDT
Temp
°C
App
Temp
°C
Dew
Point
°C
Rel
Hum
%
Delta-T
°C
Wind Press
QNH
hPa
Press
MSL
hPa
Rain since
9am
mm
Dir  Spd
km/h
Gust
km/h
Spd
kts
Gust
kts
19/11:30pm 16.8 12.2 -1.3 29 7.8 WSW 13 20 7 11 1012.2 1008.4 0.0
19/11:00pm 17.0 12.3 -1.6 28 8.0 WSW 13 19 7 10 1012.1 1008.3 0.0
19/10:30pm 17.9 12.8 -1.9 26 8.6 WSW 15 20 8 11 1012.1 1008.3 0.0
19/10:00pm 17.9 12.8 -1.9 26 8.6 WSW 15 17 8 9 1012.0 1008.2 0.0
19/09:30pm 18.3 13.6 -2.0 25 8.8 WSW 13 17 7 9 1011.8 1008.0 0.0
19/09:00pm 19.0 13.5 -2.0 24 9.2 SW 17 20 9 11 1011.2 1007.3 0.0
19/08:30pm 19.7 13.8 -2.6 22 9.7 SW 19 26 10 14 1010.3 1006.5 0.0
19/08:00pm 19.7 14.5 -2.6 22 9.7 SW 15 20 8 11 1010.0 1006.1 0.0
19/07:30pm 21.5 15.9 -3.1 19 10.7 WSW 17 22 9 12 1009.8 1005.9 0.0
19/07:00pm 22.1 16.8 -3.3 18 11.1 WSW 15 22 8 12 1009.6 1005.7 0.0
19/06:30pm 22.5 16.4 -3.7 17 11.4 SW 19 28 10 15 1009.3 1005.4 0.0
19/06:00pm 23.2 17.1 -2.4 18 11.5 SW 20 30 11 16 1008.8 1004.9 0.0
19/05:30pm 24.9 18.1 -1.8 17 12.3 WSW 24 32 13 17 1008.6 1004.7 0.0

Other Formats:

Comma delimited format used in spreadsheet applications
http://www.bom.gov.au/fwo/IDN60801/IDN60801.95728.axf

JavaScript Object Notation format (JSON) in row-major order
http://www.bom.gov.au/fwo/IDN60801/IDN60801.95728.json